Time;durP1;ratioP1;P1;durP2;ratioP2;P2;SDS_P1;SDS_P2;PMS_P1;PMS_P2;Temp;Humidity;BMP_temperature;BMP_pressure;BME280_temperature;BME280_humidity;BME280_pressure;Samples;Min_cycle;Max_cycle;Signal;HPM_P1;HPM_P2
2021/11/11 00:01:02;;;;;;;;;;;9.10;99.90;;;;;;5026422;28;19926;-72
2021/11/11 00:03:28;;;;;;;;;;;9.10;99.90;;;;;;5031270;28;20015;-71
2021/11/11 00:05:54;;;;;;;;;;;9.10;99.90;;;;;;5031616;28;19991;-71
2021/11/11 00:08:20;;;;;;;;;;;9.10;99.90;;;;;;5031372;28;20374;-71
2021/11/11 00:10:46;;;;;;;;;;;9.10;99.90;;;;;;5014007;28;19916;-72
2021/11/11 00:13:12;;;;;;;;;;;9.00;99.90;;;;;;5031373;28;19909;-70
2021/11/11 00:15:38;;;;;;;;;;;9.00;99.90;;;;;;5031002;28;19938;-71
2021/11/11 00:18:03;;;;;;;;;;;9.00;99.90;;;;;;5013545;28;20413;-71
2021/11/11 00:20:29;;;;;;;;;;;9.00;99.90;;;;;;5030724;28;19909;-71
2021/11/11 00:22:55;;;;;;;;;;;9.00;99.90;;;;;;5031168;28;19920;-70
2021/11/11 00:25:21;;;;;;;;;;;9.00;99.90;;;;;;5031414;28;19905;-71
2021/11/11 00:27:47;;;;;;;;;;;9.00;99.90;;;;;;5031219;28;19932;-70
2021/11/11 00:30:14;;;;;;;;;;;9.00;99.90;;;;;;5013610;28;19905;-71
2021/11/11 00:32:40;;;;;;;;;;;9.00;99.90;;;;;;5033850;28;19955;-71
2021/11/11 00:35:07;;;;;;;;;;;9.00;99.90;;;;;;5034727;28;19956;-71
2021/11/11 00:37:32;;;;;;;;;;;9.00;99.90;;;;;;5013930;28;19961;-72
2021/11/11 00:39:58;;;;;;;;;;;9.10;99.90;;;;;;5035722;28;19905;-72
2021/11/11 00:42:24;;;;;;;;;;;9.10;99.90;;;;;;5033280;28;20286;-70
2021/11/11 00:44:49;;;;;;;;;;;9.00;99.90;;;;;;5031323;28;19909;-70
2021/11/11 00:47:15;;;;;;;;;;;9.10;99.90;;;;;;5026522;28;20348;-72
2021/11/11 00:49:40;;;;;;;;;;;9.10;99.90;;;;;;5016032;28;19909;-71
2021/11/11 00:52:07;;;;;;;;;;;9.00;99.90;;;;;;5034936;28;19909;-70
2021/11/11 00:54:33;;;;;;;;;;;9.00;99.90;;;;;;5034721;28;19951;-71
2021/11/11 00:56:59;;;;;;;;;;;9.00;99.90;;;;;;5046853;28;19905;-71
2021/11/11 00:59:24;;;;;;;;;;;9.00;99.90;;;;;;5032927;28;19932;-74
2021/11/11 01:01:50;;;;;;;;;;;9.10;99.90;;;;;;5033956;28;20019;-71
2021/11/11 01:04:16;;;;;;;;;;;9.00;99.90;;;;;;5034783;28;20531;-71
2021/11/11 01:06:41;;;;;;;;;;;9.10;99.90;;;;;;5034698;28;19963;-71
2021/11/11 01:09:07;;;;;;;;;;;9.10;99.90;;;;;;5034000;28;19951;-71
2021/11/11 01:11:32;;;;;;;;;;;9.10;99.90;;;;;;5033983;28;19916;-70
2021/11/11 01:13:58;;;;;;;;;;;9.10;99.90;;;;;;5034406;28;19924;-71
2021/11/11 01:16:24;;;;;;;;;;;9.10;99.90;;;;;;5033683;28;19920;-71
2021/11/11 01:18:49;;;;;;;;;;;9.10;99.90;;;;;;5023590;28;20741;-72
2021/11/11 01:21:15;;;;;;;;;;;9.10;99.90;;;;;;5032822;28;20418;-71
2021/11/11 01:23:41;;;;;;;;;;;9.10;99.90;;;;;;5034267;28;19941;-71
2021/11/11 01:26:07;;;;;;;;;;;9.10;99.90;;;;;;5033606;28;19912;-71
2021/11/11 01:28:34;;;;;;;;;;;9.10;99.90;;;;;;5033584;28;20050;-71
2021/11/11 01:31:00;;;;;;;;;;;9.10;99.90;;;;;;5033640;28;19909;-71
2021/11/11 01:33:26;;;;;;;;;;;9.10;99.90;;;;;;5034070;28;19905;-70
2021/11/11 01:35:51;;;;;;;;;;;9.00;99.90;;;;;;5033881;28;20002;-70
2021/11/11 01:38:17;;;;;;;;;;;9.00;99.90;;;;;;5034403;28;19943;-71
2021/11/11 01:40:43;;;;;;;;;;;9.00;99.90;;;;;;5033403;28;19920;-71
2021/11/11 01:43:09;;;;;;;;;;;9.10;99.90;;;;;;5032894;28;19905;-71
2021/11/11 01:45:37;;;;;;;;;;;9.00;99.90;;;;;;5016030;28;19909;-70
2021/11/11 01:48:04;;;;;;;;;;;9.10;99.90;;;;;;5032489;28;19916;-71
2021/11/11 01:50:30;;;;;;;;;;;9.10;99.90;;;;;;5027152;28;20000;-69
2021/11/11 01:52:56;;;;;;;;;;;9.10;99.90;;;;;;5033331;28;19913;-70
2021/11/11 01:55:22;;;;;;;;;;;9.10;99.90;;;;;;5033501;28;19909;-70
2021/11/11 01:57:47;;;;;;;;;;;9.10;99.90;;;;;;5032311;28;19959;-70
2021/11/11 02:00:33;;;;;;;;;;;9.10;99.90;;;;;;5033270;28;19909;-70
2021/11/11 02:03:00;;;;;;;;;;;9.10;99.90;;;;;;5033048;28;19955;-71
2021/11/11 02:05:26;;;;;;;;;;;9.10;99.90;;;;;;5027157;28;20001;-71
2021/11/11 02:07:52;;;;;;;;;;;9.10;99.90;;;;;;5020437;28;19909;-71
2021/11/11 02:10:18;;;;;;;;;;;9.10;99.90;;;;;;5026563;28;19959;-70
2021/11/11 02:12:45;;;;;;;;;;;9.10;99.90;;;;;;5033077;28;19909;-71
2021/11/11 02:15:11;;;;;;;;;;;9.10;99.90;;;;;;5033211;28;20420;-70
2021/11/11 02:17:37;;;;;;;;;;;9.10;99.90;;;;;;5032418;28;19909;-70
2021/11/11 02:20:05;;;;;;;;;;;9.00;99.90;;;;;;5032388;28;19975;-71
2021/11/11 02:22:31;;;;;;;;;;;9.10;99.90;;;;;;5015674;28;20362;-70
2021/11/11 02:24:56;;;;;;;;;;;9.00;99.90;;;;;;5033331;28;19960;-70
2021/11/11 02:27:22;;;;;;;;;;;9.10;99.90;;;;;;5032699;28;19909;-71
2021/11/11 02:29:48;;;;;;;;;;;9.10;99.90;;;;;;5032659;28;20584;-71
2021/11/11 02:32:13;;;;;;;;;;;9.10;99.90;;;;;;5032615;28;19913;-70
2021/11/11 02:34:39;;;;;;;;;;;9.10;99.90;;;;;;5015448;28;19909;-72
2021/11/11 02:37:05;;;;;;;;;;;9.10;99.90;;;;;;5029920;28;19909;-70
2021/11/11 02:39:32;;;;;;;;;;;9.10;99.90;;;;;;5009710;28;20379;-72
2021/11/11 02:41:58;;;;;;;;;;;9.10;99.90;;;;;;5028767;28;20412;-72
2021/11/11 02:44:24;;;;;;;;;;;9.00;99.90;;;;;;5013554;28;20000;-71
2021/11/11 02:46:51;;;;;;;;;;;9.10;99.90;;;;;;5030712;28;19921;-71
2021/11/11 02:49:17;;;;;;;;;;;9.10;99.90;;;;;;5032167;28;20420;-71
2021/11/11 02:51:42;;;;;;;;;;;9.00;99.90;;;;;;5030940;28;19904;-72
2021/11/11 02:54:08;;;;;;;;;;;9.10;99.90;;;;;;5032063;28;19917;-71
2021/11/11 02:56:33;;;;;;;;;;;9.10;99.90;;;;;;5015243;28;19947;-71
2021/11/11 02:58:59;;;;;;;;;;;9.10;99.90;;;;;;5031868;28;19992;-71
2021/11/11 03:01:24;;;;;;;;;;;9.10;99.90;;;;;;5014340;28;19935;-72
2021/11/11 03:03:50;;;;;;;;;;;9.10;99.90;;;;;;5030188;28;20390;-72
2021/11/11 03:06:16;;;;;;;;;;;9.10;99.90;;;;;;5031509;28;19924;-72
2021/11/11 03:08:42;;;;;;;;;;;9.10;99.90;;;;;;5014207;28;19905;-72
2021/11/11 03:11:07;;;;;;;;;;;9.10;99.90;;;;;;5030392;28;19959;-71
2021/11/11 03:13:33;;;;;;;;;;;9.10;99.90;;;;;;5029951;28;19944;-72
2021/11/11 03:15:58;;;;;;;;;;;9.10;99.90;;;;;;5030593;28;20584;-72
2021/11/11 03:18:24;;;;;;;;;;;9.10;99.90;;;;;;5013457;28;19909;-71
2021/11/11 03:20:51;;;;;;;;;;;9.00;99.90;;;;;;5029179;28;20000;-72
2021/11/11 03:23:16;;;;;;;;;;;9.00;99.90;;;;;;5030619;28;19931;-72
2021/11/11 03:25:42;;;;;;;;;;;9.10;99.90;;;;;;5031188;28;21736;-72
2021/11/11 03:28:08;;;;;;;;;;;9.00;99.90;;;;;;5031484;28;19992;-72
2021/11/11 03:30:34;;;;;;;;;;;9.00;99.90;;;;;;5030501;28;19905;-71
2021/11/11 03:32:59;;;;;;;;;;;9.00;99.90;;;;;;5030855;28;20275;-72
2021/11/11 03:35:26;;;;;;;;;;;9.10;99.90;;;;;;5031433;28;19958;-71
2021/11/11 03:37:52;;;;;;;;;;;9.00;99.90;;;;;;5030282;28;19909;-73
2021/11/11 03:40:20;;;;;;;;;;;9.10;99.90;;;;;;5029212;28;19909;-72
2021/11/11 03:42:48;;;;;;;;;;;9.10;99.90;;;;;;5031056;28;20387;-72
2021/11/11 03:45:13;;;;;;;;;;;9.10;99.90;;;;;;5030921;28;19909;-71
2021/11/11 03:47:39;;;;;;;;;;;9.10;99.90;;;;;;5031240;28;19936;-72
2021/11/11 03:50:05;;;;;;;;;;;9.00;99.90;;;;;;5030730;28;19931;-71
2021/11/11 03:52:32;;;;;;;;;;;9.10;99.90;;;;;;5031327;28;19955;-72
2021/11/11 03:54:57;;;;;;;;;;;9.00;99.90;;;;;;5012750;28;19917;-71
2021/11/11 03:57:24;;;;;;;;;;;9.00;99.90;;;;;;5031166;28;19999;-72
2021/11/11 03:59:49;;;;;;;;;;;9.00;99.90;;;;;;5031805;28;20003;-72
2021/11/11 04:02:16;;;;;;;;;;;9.00;99.90;;;;;;5028800;28;20450;-72
2021/11/11 04:04:41;;;;;;;;;;;9.10;99.90;;;;;;5029991;28;20370;-73
2021/11/11 04:07:07;;;;;;;;;;;9.10;99.90;;;;;;5018565;28;19921;-72
2021/11/11 04:09:33;;;;;;;;;;;9.10;99.90;;;;;;5034031;28;19912;-71
2021/11/11 04:12:01;;;;;;;;;;;9.10;99.90;;;;;;5033765;28;19948;-72
2021/11/11 04:14:26;;;;;;;;;;;9.10;99.90;;;;;;5034619;28;19909;-72
2021/11/11 04:16:52;;;;;;;;;;;9.10;99.90;;;;;;5015072;28;19931;-73
2021/11/11 04:19:18;;;;;;;;;;;9.10;99.90;;;;;;5034273;28;19964;-72
2021/11/11 04:21:43;;;;;;;;;;;9.10;99.90;;;;;;5034295;28;20344;-71
2021/11/11 04:24:09;;;;;;;;;;;9.10;99.90;;;;;;5033250;28;19909;-72
2021/11/11 04:26:43;;;;;;;;;;;9.10;99.90;;;;;;5034381;28;19917;-72
2021/11/11 04:29:28;;;;;;;;;;;9.10;99.90;;;;;;5031520;28;19916;-72
2021/11/11 04:34:20;;;;;;;;;;;9.10;99.90;;;;;;5031573;28;19967;-72
2021/11/11 04:42:04;;;;;;;;;;;9.10;99.90;;;;;;5029394;28;19917;-72
2021/11/11 04:53:02;;;;;;;;;;;9.10;99.90;;;;;;5031523;28;19916;-72
2021/11/11 05:01:19;;;;;;;;;;;9.00;99.90;;;;;;5031905;28;19928;-72
2021/11/11 05:03:48;;;;;;;;;;;9.00;99.90;;;;;;5032368;28;19931;-72
2021/11/11 05:06:15;;;;;;;;;;;9.00;99.90;;;;;;5030669;28;19913;-72
2021/11/11 05:08:40;;;;;;;;;;;9.00;99.90;;;;;;5030611;28;20389;-73
2021/11/11 05:11:06;;;;;;;;;;;9.00;99.90;;;;;;5031897;28;19917;-73
2021/11/11 05:13:32;;;;;;;;;;;9.00;99.90;;;;;;5031114;28;20062;-74
2021/11/11 05:15:57;;;;;;;;;;;9.00;99.90;;;;;;5028090;28;19905;-72
2021/11/11 05:18:23;;;;;;;;;;;9.00;99.90;;;;;;5029118;28;19916;-71
2021/11/11 05:20:49;;;;;;;;;;;9.00;99.90;;;;;;5031392;28;19912;-72
2021/11/11 05:23:15;;;;;;;;;;;9.00;99.90;;;;;;5033675;28;19908;-74
2021/11/11 05:25:40;;;;;;;;;;;9.00;99.90;;;;;;5032222;28;20016;-73
2021/11/11 05:28:06;;;;;;;;;;;9.00;99.90;;;;;;5032753;28;19917;-73
2021/11/11 05:30:32;;;;;;;;;;;9.10;99.90;;;;;;5029654;28;19909;-73
2021/11/11 05:32:58;;;;;;;;;;;9.00;99.90;;;;;;5030948;28;19928;-74
2021/11/11 05:35:23;;;;;;;;;;;9.00;99.90;;;;;;5032226;28;19917;-74
2021/11/11 05:37:49;;;;;;;;;;;9.00;99.90;;;;;;5014280;28;19913;-73
2021/11/11 05:40:15;;;;;;;;;;;9.00;99.90;;;;;;5031246;28;19963;-74
2021/11/11 05:42:41;;;;;;;;;;;9.00;99.90;;;;;;5032138;28;19909;-73
2021/11/11 05:45:08;;;;;;;;;;;9.00;99.90;;;;;;5030258;28;19917;-73
2021/11/11 05:47:33;;;;;;;;;;;9.00;99.90;;;;;;5028833;28;19921;-73
2021/11/11 05:49:59;;;;;;;;;;;9.00;99.90;;;;;;5032878;28;19913;-72
2021/11/11 05:52:25;;;;;;;;;;;9.00;99.90;;;;;;5026032;28;19963;-72
2021/11/11 05:54:51;;;;;;;;;;;9.00;99.90;;;;;;5027309;28;20251;-72
2021/11/11 05:57:17;;;;;;;;;;;9.10;99.90;;;;;;5027543;28;19941;-72
2021/11/11 05:59:43;;;;;;;;;;;9.10;99.90;;;;;;5027269;28;19917;-71
2021/11/11 06:02:11;;;;;;;;;;;9.00;99.90;;;;;;5027962;28;19929;-72
2021/11/11 06:04:36;;;;;;;;;;;9.00;99.90;;;;;;5026507;28;20000;-72
2021/11/11 06:07:02;;;;;;;;;;;9.00;99.90;;;;;;5026380;28;20023;-73
2021/11/11 06:09:28;;;;;;;;;;;9.00;99.90;;;;;;5026513;28;20270;-72
2021/11/11 06:11:53;;;;;;;;;;;9.00;99.90;;;;;;5027498;28;19919;-73
2021/11/11 06:14:19;;;;;;;;;;;9.00;99.90;;;;;;5015241;28;20394;-71
2021/11/11 06:16:45;;;;;;;;;;;9.00;99.90;;;;;;5026057;28;19917;-72
2021/11/11 06:19:10;;;;;;;;;;;9.10;99.90;;;;;;5027602;28;19909;-73
2021/11/11 06:21:37;;;;;;;;;;;9.10;99.90;;;;;;5028979;28;20022;-72
2021/11/11 06:24:03;;;;;;;;;;;9.10;99.90;;;;;;5032042;28;19913;-73
2021/11/11 06:26:28;;;;;;;;;;;9.10;99.90;;;;;;5029967;28;20059;-73
2021/11/11 06:28:54;;;;;;;;;;;9.10;99.90;;;;;;5027946;28;20008;-72
2021/11/11 06:31:20;;;;;;;;;;;9.20;99.90;;;;;;5027788;28;19909;-73
2021/11/11 06:33:45;;;;;;;;;;;9.30;99.90;;;;;;5010718;28;20270;-70
2021/11/11 06:36:11;;;;;;;;;;;9.20;99.90;;;;;;5029147;28;19928;-73
2021/11/11 06:38:37;;;;;;;;;;;9.20;99.90;;;;;;5027691;28;19909;-73
2021/11/11 06:41:03;;;;;;;;;;;9.20;99.90;;;;;;5026837;28;19916;-73
2021/11/11 06:43:29;;;;;;;;;;;9.20;99.90;;;;;;5026596;28;19936;-72
2021/11/11 06:45:55;;;;;;;;;;;9.20;99.90;;;;;;5025965;28;20268;-73
2021/11/11 06:48:20;;;;;;;;;;;9.20;99.90;;;;;;5029802;28;19919;-73
2021/11/11 06:50:46;;;;;;;;;;;9.20;99.90;;;;;;5029093;28;19920;-72
2021/11/11 06:53:13;;;;;;;;;;;9.20;99.90;;;;;;5032538;28;20371;-72
2021/11/11 06:55:40;;;;;;;;;;;9.20;99.90;;;;;;5031543;28;20355;-72
2021/11/11 06:58:06;;;;;;;;;;;9.20;99.90;;;;;;5030120;28;19992;-73
2021/11/11 07:00:32;;;;;;;;;;;9.20;99.90;;;;;;5012361;28;20005;-73
2021/11/11 07:02:57;;;;;;;;;;;9.20;99.90;;;;;;5031784;28;19924;-73
2021/11/11 07:05:23;;;;;;;;;;;9.20;99.90;;;;;;5031937;28;19909;-73
2021/11/11 07:07:49;;;;;;;;;;;9.20;99.90;;;;;;5030965;28;19913;-73
2021/11/11 07:10:14;;;;;;;;;;;9.20;99.90;;;;;;5029963;28;19909;-71
2021/11/11 07:12:40;;;;;;;;;;;9.20;99.90;;;;;;5016455;28;19916;-72
2021/11/11 07:15:07;;;;;;;;;;;9.30;99.90;;;;;;5030491;28;19936;-72
2021/11/11 07:17:34;;;;;;;;;;;9.20;99.90;;;;;;5027011;28;19940;-73
2021/11/11 07:20:00;;;;;;;;;;;9.20;99.90;;;;;;5011884;28;19963;-73
2021/11/11 07:22:26;;;;;;;;;;;9.20;99.90;;;;;;5031709;28;20386;-73
2021/11/11 07:24:52;;;;;;;;;;;9.30;99.90;;;;;;5030447;28;19917;-72
2021/11/11 07:27:18;;;;;;;;;;;9.30;99.90;;;;;;5028816;28;19917;-73
2021/11/11 07:29:44;;;;;;;;;;;9.30;99.90;;;;;;4999845;28;19913;-73
2021/11/11 07:32:10;;;;;;;;;;;9.30;99.90;;;;;;5016253;28;19909;-74
2021/11/11 07:34:36;;;;;;;;;;;9.30;99.90;;;;;;5014545;28;19917;-72
2021/11/11 07:37:05;;;;;;;;;;;9.30;99.90;;;;;;5031078;28;19963;-73
2021/11/11 07:39:32;;;;;;;;;;;9.30;99.90;;;;;;5027005;28;19967;-74
2021/11/11 07:41:58;;;;;;;;;;;9.40;99.90;;;;;;5014811;28;20014;-73
2021/11/11 07:44:23;;;;;;;;;;;9.40;99.90;;;;;;5029714;28;20339;-73
2021/11/11 07:46:49;;;;;;;;;;;9.40;99.90;;;;;;5029051;28;19960;-72
2021/11/11 07:49:15;;;;;;;;;;;9.50;99.90;;;;;;5029338;28;20558;-73
2021/11/11 07:51:40;;;;;;;;;;;9.50;99.90;;;;;;5029748;28;19916;-73
2021/11/11 07:54:06;;;;;;;;;;;9.50;99.90;;;;;;5016807;28;20274;-73
2021/11/11 07:56:34;;;;;;;;;;;9.50;99.90;;;;;;5020000;28;19909;-72
2021/11/11 07:58:59;;;;;;;;;;;9.50;99.90;;;;;;5014218;28;19909;-73
2021/11/11 08:01:25;;;;;;;;;;;9.50;99.90;;;;;;5028058;28;19924;-73
2021/11/11 08:03:51;;;;;;;;;;;9.50;99.90;;;;;;5017838;28;19959;-73
2021/11/11 08:06:16;;;;;;;;;;;9.60;99.90;;;;;;5018648;28;20382;-73
2021/11/11 08:08:42;;;;;;;;;;;9.60;99.90;;;;;;5029909;28;20385;-72
2021/11/11 08:11:08;;;;;;;;;;;9.50;99.90;;;;;;5029794;28;19909;-74
2021/11/11 08:13:34;;;;;;;;;;;9.60;99.90;;;;;;5029376;28;19909;-73
2021/11/11 08:15:59;;;;;;;;;;;9.60;99.90;;;;;;5020094;28;20007;-73
2021/11/11 08:18:25;;;;;;;;;;;9.70;99.90;;;;;;5006995;28;19976;-71
2021/11/11 08:20:53;;;;;;;;;;;9.60;99.90;;;;;;5027738;28;19944;-73
2021/11/11 08:23:19;;;;;;;;;;;9.60;99.90;;;;;;5027641;28;19984;-73
2021/11/11 08:25:47;;;;;;;;;;;9.60;99.90;;;;;;5029305;28;19913;-70
2021/11/11 08:28:13;;;;;;;;;;;9.60;99.90;;;;;;5029189;28;19913;-73
2021/11/11 08:30:39;;;;;;;;;;;9.60;99.90;;;;;;5029762;28;19916;-72
2021/11/11 08:33:04;;;;;;;;;;;9.60;99.90;;;;;;5013676;28;19913;-72
2021/11/11 08:35:31;;;;;;;;;;;9.70;99.90;;;;;;5024138;28;19913;-72
2021/11/11 08:37:57;;;;;;;;;;;9.70;99.90;;;;;;5027751;28;20327;-72
2021/11/11 08:40:22;;;;;;;;;;;9.70;99.90;;;;;;5029704;28;19998;-72
2021/11/11 08:42:49;;;;;;;;;;;9.70;99.90;;;;;;5028869;28;19971;-72
2021/11/11 08:45:15;;;;;;;;;;;9.70;99.90;;;;;;5030692;28;19952;-72
2021/11/11 08:47:41;;;;;;;;;;;9.80;99.90;;;;;;5030572;28;19913;-72
2021/11/11 08:50:07;;;;;;;;;;;9.80;99.90;;;;;;5028425;28;20326;-72
2021/11/11 08:52:35;;;;;;;;;;;9.80;99.90;;;;;;5030989;28;19913;-72
2021/11/11 08:55:00;;;;;;;;;;;9.80;99.90;;;;;;5033473;28;19963;-72
2021/11/11 08:57:27;;;;;;;;;;;9.70;99.90;;;;;;5032844;28;19921;-72
2021/11/11 08:59:54;;;;;;;;;;;9.70;99.90;;;;;;5015966;28;20306;-72
2021/11/11 09:02:21;;;;;;;;;;;9.80;99.90;;;;;;5031492;28;19974;-75
2021/11/11 09:04:48;;;;;;;;;;;9.80;99.90;;;;;;5034314;28;19919;-72
2021/11/11 09:07:14;;;;;;;;;;;9.80;99.90;;;;;;5032233;28;19952;-72
2021/11/11 09:09:39;;;;;;;;;;;9.80;99.90;;;;;;5033785;28;19944;-72
2021/11/11 09:12:05;;;;;;;;;;;9.90;99.90;;;;;;5034316;28;19996;-72
2021/11/11 09:14:30;;;;;;;;;;;9.90;99.90;;;;;;5035309;28;19958;-72
2021/11/11 09:16:56;;;;;;;;;;;9.90;99.90;;;;;;5031690;28;20367;-72
2021/11/11 09:19:22;;;;;;;;;;;9.90;99.90;;;;;;5034481;28;19984;-72
2021/11/11 09:21:48;;;;;;;;;;;9.90;99.90;;;;;;5033569;28;19909;-72
2021/11/11 09:24:13;;;;;;;;;;;9.90;99.90;;;;;;5017170;28;20363;-72
2021/11/11 09:26:39;;;;;;;;;;;9.90;99.90;;;;;;5033507;28;19955;-72
2021/11/11 09:29:05;;;;;;;;;;;9.90;99.90;;;;;;5033245;28;19909;-72
2021/11/11 09:31:31;;;;;;;;;;;9.90;99.90;;;;;;5032902;28;20335;-72
2021/11/11 09:33:57;;;;;;;;;;;10.00;99.90;;;;;;5018347;28;19970;-72
2021/11/11 09:36:22;;;;;;;;;;;10.00;99.90;;;;;;5031257;28;19940;-72
2021/11/11 09:38:48;;;;;;;;;;;10.00;99.90;;;;;;5018853;28;19909;-72
2021/11/11 09:41:14;;;;;;;;;;;10.00;99.90;;;;;;5031225;28;19913;-72
2021/11/11 09:43:40;;;;;;;;;;;10.00;99.90;;;;;;5019237;28;19905;-72
2021/11/11 09:46:07;;;;;;;;;;;10.00;99.90;;;;;;5018072;28;20437;-72
2021/11/11 09:48:34;;;;;;;;;;;10.10;99.90;;;;;;5031329;28;19916;-72
2021/11/11 09:51:01;;;;;;;;;;;10.10;99.90;;;;;;5020970;28;19916;-72
2021/11/11 09:53:29;;;;;;;;;;;10.10;99.90;;;;;;5031299;28;19912;-72
2021/11/11 09:58:41;;;;;;;;;;;10.20;99.90;;;;;;5030643;28;20335;-72
2021/11/11 10:01:12;;;;;;;;;;;10.20;99.90;;;;;;5027801;28;20062;-72
2021/11/11 10:03:42;;;;;;;;;;;10.20;99.90;;;;;;5029310;28;19963;-72
2021/11/11 10:06:09;;;;;;;;;;;10.20;99.90;;;;;;5031112;28;19909;-72
2021/11/11 10:08:39;;;;;;;;;;;10.20;99.90;;;;;;5029781;28;19912;-72
2021/11/11 10:11:09;;;;;;;;;;;10.20;99.90;;;;;;5029802;28;19909;-72
2021/11/11 10:13:35;;;;;;;;;;;10.20;99.90;;;;;;5030578;28;20051;-72
2021/11/11 10:16:07;;;;;;;;;;;10.20;99.90;;;;;;5016219;28;19909;-72
2021/11/11 10:18:52;;;;;;;;;;;10.20;99.90;;;;;;5028392;28;20061;-72
2021/11/11 10:21:18;;;;;;;;;;;10.20;99.90;;;;;;5027098;28;19913;-72
2021/11/11 10:23:44;;;;;;;;;;;10.20;99.90;;;;;;5030905;28;19920;-72
2021/11/11 10:26:17;;;;;;;;;;;10.20;99.90;;;;;;5019763;28;19916;-72
2021/11/11 10:28:43;;;;;;;;;;;10.20;99.90;;;;;;5031180;28;19917;-72
2021/11/11 10:31:13;;;;;;;;;;;10.30;99.90;;;;;;5027291;28;19958;-72
2021/11/11 10:33:44;;;;;;;;;;;10.20;99.90;;;;;;5028859;28;20457;-72
2021/11/11 10:36:10;;;;;;;;;;;10.20;99.90;;;;;;5023917;28;20007;-72
2021/11/11 10:38:35;;;;;;;;;;;10.20;99.90;;;;;;5031001;28;20393;-72
2021/11/11 10:41:01;;;;;;;;;;;10.20;99.90;;;;;;5029242;28;19916;-72
2021/11/11 10:43:28;;;;;;;;;;;10.20;99.90;;;;;;5030854;28;19913;-72
2021/11/11 10:45:56;;;;;;;;;;;10.20;99.90;;;;;;5029710;28;20432;-72
2021/11/11 10:48:23;;;;;;;;;;;10.30;99.90;;;;;;5029592;28;20047;-72
2021/11/11 10:50:51;;;;;;;;;;;10.40;99.90;;;;;;5028795;28;19909;-72
2021/11/11 10:53:21;;;;;;;;;;;10.40;99.90;;;;;;5030240;28;19913;-72
2021/11/11 10:55:49;;;;;;;;;;;10.50;99.90;;;;;;5019732;28;19913;-73
2021/11/11 10:58:16;;;;;;;;;;;10.50;99.90;;;;;;5029523;28;19925;-72
2021/11/11 11:00:42;;;;;;;;;;;10.60;99.90;;;;;;5029713;28;20089;-72
2021/11/11 11:03:07;;;;;;;;;;;10.60;99.90;;;;;;5031095;28;20372;-72
2021/11/11 11:05:45;;;;;;;;;;;10.70;99.90;;;;;;5029807;28;19984;-72
2021/11/11 11:08:16;;;;;;;;;;;10.70;99.90;;;;;;5030356;28;19948;-72
2021/11/11 11:10:43;;;;;;;;;;;10.80;99.90;;;;;;5028543;28;20878;-72
2021/11/11 11:13:17;;;;;;;;;;;10.80;99.90;;;;;;5026638;28;19908;-72
2021/11/11 11:15:45;;;;;;;;;;;10.80;99.90;;;;;;5035602;28;19909;-72
2021/11/11 11:18:11;;;;;;;;;;;10.80;99.90;;;;;;5030741;28;20008;-72
2021/11/11 11:20:38;;;;;;;;;;;10.80;99.90;;;;;;5029957;28;19909;-72
2021/11/11 11:23:21;;;;;;;;;;;10.70;99.90;;;;;;5030961;28;19916;-73
2021/11/11 11:25:55;;;;;;;;;;;10.60;99.90;;;;;;5018079;28;20039;-72
2021/11/11 11:28:33;;;;;;;;;;;10.60;99.90;;;;;;5028401;28;20016;-72
2021/11/11 11:31:01;;;;;;;;;;;10.60;99.90;;;;;;5029295;28;19919;-71
2021/11/11 11:33:36;;;;;;;;;;;10.60;99.90;;;;;;5033304;28;19917;-71
2021/11/11 11:36:03;;;;;;;;;;;10.60;99.90;;;;;;5029922;28;19959;-71
2021/11/11 11:38:29;;;;;;;;;;;10.70;99.90;;;;;;5028936;28;19909;-71
2021/11/11 11:40:56;;;;;;;;;;;10.70;99.90;;;;;;5027352;28;20377;-71
2021/11/11 11:43:28;;;;;;;;;;;10.60;99.90;;;;;;5029677;28;19909;-72
2021/11/11 11:50:23;;;;;;;41.53;24.90;;;10.70;99.90;;;;;;5126484;27;20022;-75
2021/11/11 11:52:57;;;;;;;52.75;28.45;;;10.70;99.90;;;;;;5092515;28;20077;-72
2021/11/11 11:55:29;;;;;;;43.20;24.70;;;10.70;99.90;;;;;;5126145;28;20091;-74
2021/11/11 12:11:48;;;;;;;43.65;26.90;;;10.60;99.90;;;;;;5125926;28;20024;-74
2021/11/11 12:14:06;;;;;;;44.42;26.80;;;10.60;99.90;;;;;;5122943;28;20027;-74
2021/11/11 12:17:17;;;;;;;44.15;27.33;;;10.60;99.90;;;;;;5121144;28;20034;-74
2021/11/11 12:28:57;;;;;;;41.33;25.58;;;10.60;99.90;;;;;;5126664;28;20042;-74
2021/11/11 12:39:41;;;;;;;44.13;26.40;;;10.60;99.90;;;;;;5125721;28;20099;-73
2021/11/11 12:42:40;;;;;;;48.65;27.67;;;10.60;99.90;;;;;;5123407;28;20496;-73
2021/11/11 12:45:28;;;;;;;43.35;26.30;;;10.60;99.90;;;;;;5118539;28;20024;-73
2021/11/11 12:48:01;;;;;;;43.75;27.35;;;10.60;99.90;;;;;;5121315;27;20031;-73
2021/11/11 12:50:48;;;;;;;42.42;25.60;;;10.60;99.90;;;;;;5123882;28;20530;-73
2021/11/11 12:53:14;;;;;;;42.40;25.70;;;10.60;99.90;;;;;;5117920;28;20036;-73
2021/11/11 12:55:44;;;;;;;46.05;27.48;;;10.60;99.90;;;;;;5122855;28;20602;-73
2021/11/11 12:58:14;;;;;;;44.97;26.65;;;10.60;99.90;;;;;;5116902;28;20481;-74
2021/11/11 13:00:44;;;;;;;47.88;26.35;;;10.60;99.90;;;;;;5112876;28;20031;-74
2021/11/11 13:03:11;;;;;;;40.05;26.23;;;10.50;99.90;;;;;;5107280;28;20372;-74
2021/11/11 13:05:58;;;;;;;42.75;26.83;;;10.50;99.90;;;;;;5107840;28;20436;-74
2021/11/11 13:08:53;;;;;;;44.35;27.08;;;10.50;99.90;;;;;;5104760;28;20031;-74
2021/11/11 13:11:30;;;;;;;39.03;25.00;;;10.50;99.90;;;;;;5109063;28;20053;-75
2021/11/11 13:14:14;;;;;;;40.72;26.55;;;10.50;99.90;;;;;;5104825;28;20034;-74
2021/11/11 13:16:42;;;;;;;50.38;28.38;;;10.50;99.90;;;;;;5107578;28;20393;-74
2021/11/11 13:19:08;;;;;;;216.20;122.10;;;10.50;99.90;;;;;;5112784;28;20031;-73
2021/11/11 16:01:36;;;;;;;40.75;26.83;;;10.20;99.90;;;;;;5020826;28;20430;-76
2021/11/11 16:23:04;;;;;;;40.95;24.98;;;10.20;99.90;;;;;;5018391;28;20124;-76
2021/11/11 16:28:08;;;;;;;34.05;22.58;;;10.20;99.90;;;;;;5019006;28;20414;-76
2021/11/11 16:30:34;;;;;;;35.63;23.55;;;10.20;99.90;;;;;;5020721;28;20041;-76
2021/11/11 16:33:00;;;;;;;33.90;23.08;;;10.20;99.90;;;;;;5024740;28;20030;-76
2021/11/11 16:35:26;;;;;;;35.80;22.60;;;10.20;99.90;;;;;;5023096;28;20033;-76
2021/11/11 16:37:53;;;;;;;35.72;24.25;;;10.20;99.90;;;;;;5026606;28;20029;-75
2021/11/11 16:40:21;;;;;;;36.88;23.77;;;10.20;99.90;;;;;;5028503;28;20025;-76
2021/11/11 16:42:47;;;;;;;36.95;24.45;;;10.20;99.90;;;;;;5026411;28;20030;-76
2021/11/11 16:45:15;;;;;;;38.00;26.45;;;10.20;99.90;;;;;;5026770;28;20026;-76
2021/11/11 16:47:42;;;;;;;34.60;24.40;;;10.20;99.90;;;;;;5026898;28;20079;-76
2021/11/11 16:50:08;;;;;;;34.25;24.02;;;10.20;99.90;;;;;;5027123;28;20021;-76
2021/11/11 16:52:34;;;;;;;44.08;28.35;;;10.20;99.90;;;;;;5029484;28;20534;-75
2021/11/11 16:54:59;;;;;;;40.55;26.63;;;10.20;99.90;;;;;;5023607;28;20030;-76
2021/11/11 16:57:25;;;;;;;44.78;27.60;;;10.20;99.90;;;;;;5026151;28;20028;-75
2021/11/11 16:59:50;;;;;;;45.13;28.08;;;10.20;99.90;;;;;;5022793;28;20064;-75
2021/11/11 17:02:16;;;;;;;39.15;25.55;;;10.20;99.90;;;;;;5027452;28;20029;-74
2021/11/11 17:04:42;;;;;;;39.60;26.05;;;10.20;99.90;;;;;;5023368;28;20045;-75
2021/11/11 17:07:08;;;;;;;42.47;26.13;;;10.20;99.90;;;;;;5024091;28;20089;-74
2021/11/11 17:09:33;;;;;;;39.55;24.67;;;10.20;99.90;;;;;;5025109;28;20422;-76
2021/11/11 17:11:59;;;;;;;52.95;31.98;;;10.20;99.90;;;;;;5022229;28;20057;-74
2021/11/11 17:14:28;;;;;;;50.60;28.05;;;10.30;99.90;;;;;;5022333;28;20029;-73
2021/11/11 17:16:56;;;;;;;44.10;26.30;;;10.20;99.90;;;;;;5025191;28;20120;-74
2021/11/11 17:19:24;;;;;;;53.90;32.45;;;10.20;99.90;;;;;;5026042;28;20022;-74
2021/11/11 17:21:51;;;;;;;43.63;27.30;;;10.20;99.90;;;;;;5024576;28;20067;-75
2021/11/11 17:24:26;;;;;;;50.60;28.08;;;10.30;99.90;;;;;;5022776;28;20029;-74
2021/11/11 17:29:21;;;;;;;48.58;29.65;;;10.30;99.90;;;;;;5026585;28;20108;-75
2021/11/11 17:31:48;;;;;;;46.55;29.02;;;10.30;99.90;;;;;;5022814;28;20029;-74
2021/11/11 17:34:14;;;;;;;50.00;28.98;;;10.30;99.90;;;;;;5023899;28;20022;-77
2021/11/11 17:36:41;;;;;;;45.03;27.55;;;10.20;99.90;;;;;;5034687;28;20040;-75
2021/11/11 17:39:09;;;;;;;53.25;30.55;;;10.20;99.90;;;;;;5033422;28;20037;-77
2021/11/11 17:41:35;;;;;;;47.22;29.02;;;10.30;99.90;;;;;;5033331;28;20391;-75
2021/11/11 17:44:07;;;;;;;49.78;29.63;;;10.30;99.90;;;;;;5036192;28;21321;-75
2021/11/11 17:46:36;;;;;;;49.22;30.48;;;10.30;99.90;;;;;;5031917;28;20030;-76
2021/11/11 17:49:04;;;;;;;47.25;28.48;;;10.30;99.90;;;;;;5041209;28;20491;-77
2021/11/11 17:51:56;;;;;;;48.38;30.65;;;10.30;99.90;;;;;;5027047;28;20029;-76
2021/11/11 17:54:30;;;;;;;46.85;28.20;;;10.20;99.90;;;;;;5032624;28;20025;-76
2021/11/11 17:56:56;;;;;;;55.95;31.35;;;10.20;99.90;;;;;;5030649;28;20082;-77
2021/11/11 17:59:27;;;;;;;56.85;32.75;;;10.20;99.90;;;;;;5026521;28;20044;-75
2021/11/11 18:01:58;;;;;;;50.90;29.05;;;10.10;99.90;;;;;;5036112;28;20029;-75
2021/11/11 18:04:28;;;;;;;50.30;30.20;;;10.20;99.90;;;;;;5033904;28;20471;-75
2021/11/11 18:07:04;;;;;;;60.03;32.97;;;10.20;99.90;;;;;;5030356;28;20030;-76